Time;durP1;ratioP1;P1;durP2;ratioP2;P2;SDS_P1;SDS_P2;PMS_P1;PMS_P2;Temp;Humidity;BMP_temperature;BMP_pressure;BME280_temperature;BME280_humidity;BME280_pressure;Samples;Min_cycle;Max_cycle;Signal;HPM_P1;HPM_P2
2021/10/20 00:01:16;;;;;;;3.77;3.47;;;;;;;7.91;92.26;96017.28;5043978;28;20219;-72
2021/10/20 00:03:44;;;;;;;2.83;2.63;;;;;;;7.89;92.42;96019.25;5042671;28;20305;-72
2021/10/20 00:06:14;;;;;;;2.17;2.07;;;;;;;7.87;92.99;96015.97;5034623;28;20221;-72
2021/10/20 00:08:42;;;;;;;1.87;1.73;;;;;;;7.89;92.59;96017.44;5036697;28;20219;-72
2021/10/20 00:11:13;;;;;;;3.97;2.63;;;;;;;7.85;92.99;96017.91;5036797;28;20217;-72
2021/10/20 00:13:41;;;;;;;2.23;2.03;;;;;;;7.82;93.17;96012.97;5042052;28;20333;-71
2021/10/20 00:16:09;;;;;;;1.93;1.83;;;;;;;7.80;92.93;96004.44;5039303;28;20211;-72
2021/10/20 00:18:37;;;;;;;2.33;2.00;;;;;;;7.80;93.13;95999.19;5033423;28;20224;-72
2021/10/20 00:21:05;;;;;;;2.30;2.20;;;;;;;7.79;93.53;95997.53;5039732;28;20268;-71
2021/10/20 00:23:33;;;;;;;2.57;2.37;;;;;;;7.77;93.58;95994.22;5044536;28;20317;-72
2021/10/20 00:26:02;;;;;;;2.03;1.90;;;;;;;7.77;93.83;95996.84;5039289;28;20263;-72
2021/10/20 00:28:32;;;;;;;2.87;2.27;;;;;;;7.76;93.72;95992.59;5045530;28;20233;-71
2021/10/20 00:31:00;;;;;;;1.50;1.40;;;;;;;7.77;94.15;95981.91;5043601;28;20225;-72
2021/10/20 00:33:28;;;;;;;2.03;1.93;;;;;;;7.70;93.77;95986.19;5043811;28;20228;-71
2021/10/20 00:35:57;;;;;;;8.43;2.10;;;;;;;7.68;94.04;95981.09;5042406;28;20224;-72
2021/10/20 00:38:25;;;;;;;2.17;1.97;;;;;;;7.62;93.76;95986.13;5039125;28;20225;-73
2021/10/20 00:40:54;;;;;;;1.67;1.57;;;;;;;7.49;93.51;95976.03;5047920;28;20222;-72
2021/10/20 00:43:23;;;;;;;0.90;0.90;;;;;;;7.37;93.02;95972.88;5047658;28;20277;-73
2021/10/20 00:45:53;;;;;;;2.13;2.03;;;;;;;7.31;92.96;95972.66;5063623;28;20221;-72
2021/10/20 00:48:21;;;;;;;1.90;1.40;;;;;;;7.15;91.97;95970.78;5032643;28;20231;-72
2021/10/20 00:50:49;;;;;;;1.40;1.30;;;;;;;7.00;92.01;95965.28;5043343;28;20261;-72
2021/10/20 00:53:18;;;;;;;2.77;1.40;;;;;;;6.88;91.77;95958.66;5035746;28;20227;-72
2021/10/20 00:55:46;;;;;;;2.10;1.63;;;;;;;6.83;92.16;95958.28;5046127;28;20223;-72
2021/10/20 00:58:14;;;;;;;1.87;1.37;;;;;;;6.81;92.06;95954.97;5041409;28;20684;-72
2021/10/20 01:00:43;;;;;;;10.87;3.40;;;;;;;6.79;92.37;95949.91;5043700;28;20215;-73
2021/10/20 01:03:12;;;;;;;2.03;1.93;;;;;;;6.79;93.26;95947.28;5046774;28;20223;-72
2021/10/20 01:05:41;;;;;;;2.53;2.43;;;;;;;6.79;93.94;95944.66;5046477;28;20300;-72
2021/10/20 01:08:08;;;;;;;3.20;2.17;;;;;;;6.85;93.89;95930.09;5048097;28;20722;-72
2021/10/20 01:10:37;;;;;;;2.17;2.07;;;;;;;6.87;94.40;95928.16;5047604;28;20288;-72
2021/10/20 01:13:06;;;;;;;1.80;1.70;;;;;;;6.91;94.65;95928.66;5039444;28;20261;-72
2021/10/20 01:15:35;;;;;;;1.40;1.30;;;;;;;6.93;94.38;95924.06;5043693;28;21887;-72
2021/10/20 01:18:03;;;;;;;2.00;1.90;;;;;;;6.92;94.40;95920.63;5036772;28;20304;-72
2021/10/20 01:20:34;;;;;;;3.43;2.63;;;;;;;6.92;94.45;95915.38;5047596;28;20222;-72
2021/10/20 01:23:03;;;;;;;1.40;1.30;;;;;;;6.80;94.90;95916.63;5045717;28;20227;-73
2021/10/20 01:25:32;;;;;;;2.47;2.17;;;;;;;6.85;94.61;95919.59;5045325;28;20627;-72
2021/10/20 01:27:59;;;;;;;1.63;1.53;;;;;;;6.84;94.62;95908.28;5043342;28;20225;-72
2021/10/20 01:30:28;;;;;;;1.43;1.33;;;;;;;6.87;94.63;95903.72;5043468;28;20221;-72
2021/10/20 01:32:56;;;;;;;2.07;1.97;;;;;;;6.84;94.66;95902.22;5040353;28;20247;-72
2021/10/20 01:35:24;;;;;;;1.90;1.80;;;;;;;6.76;94.74;95896.91;5044593;28;20215;-73
2021/10/20 01:37:52;;;;;;;1.53;1.43;;;;;;;6.76;94.38;95900.34;5040079;28;20319;-72
2021/10/20 01:40:22;;;;;;;1.40;1.30;;;;;;;6.72;94.58;95893.78;5043240;28;20747;-72
2021/10/20 01:42:49;;;;;;;3.60;1.60;;;;;;;6.69;94.89;95888.03;5037456;28;20785;-72
2021/10/20 01:45:18;;;;;;;1.70;1.60;;;;;;;6.69;95.18;95885.41;5042573;28;20583;-72
2021/10/20 01:47:46;;;;;;;1.17;1.17;;;;;;;6.65;94.80;95882.25;5043876;28;20254;-72
2021/10/20 01:50:16;;;;;;;2.27;1.50;;;;;;;6.67;95.11;95876.84;5040260;28;20246;-72
2021/10/20 01:52:44;;;;;;;2.43;1.53;;;;;;;6.62;94.80;95872.09;5042086;28;20227;-72
2021/10/20 01:55:13;;;;;;;1.03;0.97;;;;;;;6.62;94.60;95866.84;5045383;28;20286;-72
2021/10/20 01:57:42;;;;;;;2.27;2.07;;;;;;;6.61;94.66;95865.19;5052697;28;20310;-72
2021/10/20 02:00:12;;;;;;;1.60;1.50;;;;;;;6.54;94.45;95859.75;5047256;28;20301;-72
2021/10/20 02:02:40;;;;;;;1.50;1.40;;;;;;;6.52;95.01;95856.47;5045387;28;20257;-72
2021/10/20 02:05:09;;;;;;;2.73;1.30;;;;;;;6.54;94.77;95858.91;5043165;28;20250;-72
2021/10/20 02:07:38;;;;;;;1.47;1.40;;;;;;;6.62;94.24;95850.28;5045700;28;20251;-72
2021/10/20 02:10:08;;;;;;;5.27;1.27;;;;;;;6.65;94.20;95848.16;5045172;28;20219;-72
2021/10/20 02:12:37;;;;;;;1.27;1.00;;;;;;;6.67;94.28;95853.25;5039767;28;20254;-72
2021/10/20 02:15:08;;;;;;;1.20;1.10;;;;;;;6.71;94.64;95850.19;5045351;28;20250;-73
2021/10/20 02:17:36;;;;;;;1.33;1.23;;;;;;;6.72;94.63;95836.09;5044981;28;20764;-72
2021/10/20 02:20:08;;;;;;;1.30;1.20;;;;;;;6.73;95.08;95836.91;5046684;28;20301;-72
2021/10/20 02:22:36;;;;;;;1.37;1.27;;;;;;;6.79;94.61;95831.88;5038636;28;20314;-72
2021/10/20 02:25:05;;;;;;;1.13;1.07;;;;;;;6.81;95.07;95831.72;5040382;28;20303;-72
2021/10/20 02:27:33;;;;;;;3.13;1.33;;;;;;;6.81;95.12;95834.31;5039472;28;20265;-72
2021/10/20 02:30:02;;;;;;;2.40;1.30;;;;;;;6.77;95.39;95827.75;5036168;28;20226;-73
2021/10/20 02:32:32;;;;;;;1.30;1.10;;;;;;;6.77;95.53;95822.53;5028131;28;20207;-72
2021/10/20 02:35:02;;;;;;;1.80;1.70;;;;;;;6.78;95.21;95813.66;5029371;28;20214;-72
2021/10/20 02:37:30;;;;;;;4.00;3.00;;;;;;;6.72;95.07;95814.28;5040296;28;20265;-72
2021/10/20 02:39:58;;;;;;;1.93;1.67;;;;;;;6.70;94.42;95817.06;5045649;28;20638;-72
2021/10/20 02:42:27;;;;;;;1.10;1.00;;;;;;;6.70;94.46;95818.88;5040089;28;20222;-72
2021/10/20 02:44:56;;;;;;;1.47;1.37;;;;;;;6.71;94.67;95812.66;5038248;28;20332;-72
2021/10/20 02:47:24;;;;;;;2.97;1.03;;;;;;;6.69;94.75;95814.59;5039334;28;20310;-72
2021/10/20 02:49:55;;;;;;;1.17;1.03;;;;;;;6.69;94.69;95814.59;5043606;28;20639;-72
2021/10/20 02:52:23;;;;;;;0.83;0.80;;;;;;;6.67;94.47;95808.66;5043124;28;20268;-71
2021/10/20 02:54:51;;;;;;;1.10;0.90;;;;;;;6.67;94.73;95806.88;5044201;28;20239;-72
2021/10/20 02:57:19;;;;;;;2.50;1.00;;;;;;;6.67;94.56;95803.44;5054141;28;20239;-72
2021/10/20 02:59:48;;;;;;;1.17;1.07;;;;;;;6.70;94.54;95801.34;5040652;28;20585;-72
2021/10/20 03:02:16;;;;;;;2.63;0.60;;;;;;;6.75;94.64;95808.72;5044696;28;20235;-72
2021/10/20 03:04:46;;;;;;;1.13;1.10;;;;;;;6.81;94.94;95797.59;5042912;28;20276;-72
2021/10/20 03:07:15;;;;;;;1.40;1.30;;;;;;;6.78;95.26;95800.56;5045755;28;20245;-71
2021/10/20 03:09:43;;;;;;;0.73;0.60;;;;;;;6.77;94.98;95801.53;5036680;28;20214;-72
2021/10/20 03:12:12;;;;;;;2.70;1.20;;;;;;;6.78;95.08;95803.19;5034003;28;20286;-72
2021/10/20 03:14:40;;;;;;;1.50;1.23;;;;;;;6.77;95.01;95796.28;5043878;28;20229;-72
2021/10/20 03:17:08;;;;;;;1.10;1.10;;;;;;;6.76;94.97;95792.00;5043961;28;20222;-72
2021/10/20 03:19:36;;;;;;;3.77;1.20;;;;;;;6.72;95.33;95788.06;5043456;28;20223;-72
2021/10/20 03:22:07;;;;;;;0.90;0.90;;;;;;;6.77;95.94;95788.44;5040245;28;20218;-73
2021/10/20 03:24:37;;;;;;;1.73;0.80;;;;;;;6.85;96.01;95785.81;5043596;28;20237;-73
2021/10/20 03:27:05;;;;;;;1.80;1.03;;;;;;;6.94;96.28;95786.66;5040845;28;20316;-72
2021/10/20 03:29:33;;;;;;;1.63;0.83;;;;;;;7.02;96.11;95770.97;5038210;28;20319;-72
2021/10/20 03:32:01;;;;;;;1.23;1.17;;;;;;;7.12;96.34;95764.59;5038114;28;20312;-72
2021/10/20 03:34:29;;;;;;;0.70;0.70;;;;;;;7.19;96.41;95769.22;5042779;28;20752;-73
2021/10/20 03:36:57;;;;;;;0.80;0.77;;;;;;;7.25;96.55;95763.34;5044877;28;20230;-72
2021/10/20 03:39:25;;;;;;;1.37;1.27;;;;;;;7.31;96.15;95758.22;5039962;28;20211;-72
2021/10/20 03:41:54;;;;;;;1.03;1.03;;;;;;;7.39;96.06;95753.00;5043472;28;20210;-72
2021/10/20 03:44:22;;;;;;;0.67;0.67;;;;;;;7.50;96.28;95748.41;5044593;28;20307;-72
2021/10/20 03:46:51;;;;;;;1.43;1.33;;;;;;;7.61;96.37;95746.31;5044618;28;20246;-73
2021/10/20 03:49:19;;;;;;;1.63;0.67;;;;;;;7.78;96.79;95741.06;5037404;28;20227;-72
2021/10/20 03:51:46;;;;;;;0.37;0.30;;;;;;;7.88;96.19;95733.84;5049650;28;20215;-71
2021/10/20 03:54:15;;;;;;;0.80;0.80;;;;;;;8.04;96.31;95723.28;5042543;28;20311;-73
2021/10/20 03:56:42;;;;;;;1.13;0.70;;;;;;;8.12;95.90;95715.41;5036019;28;20314;-73
2021/10/20 03:59:12;;;;;;;1.27;1.17;;;;;;;8.17;95.11;95722.81;5041674;28;20248;-73
2021/10/20 04:01:40;;;;;;;1.90;1.53;;;;;;;8.13;94.61;95711.78;5038300;28;20644;-73
2021/10/20 04:04:08;;;;;;;0.97;0.77;;;;;;;8.02;93.87;95713.94;5040846;28;20665;-72
2021/10/20 04:06:37;;;;;;;0.90;0.90;;;;;;;7.83;93.33;95701.97;5035120;28;20655;-72
2021/10/20 04:09:06;;;;;;;1.37;0.73;;;;;;;7.69;92.83;95704.28;5042225;28;20243;-72
2021/10/20 04:11:34;;;;;;;5.37;2.83;;;;;;;7.51;91.83;95706.28;5033752;28;20298;-73
2021/10/20 04:14:02;;;;;;;4.13;1.03;;;;;;;7.41;92.05;95705.59;5036050;28;20243;-72
2021/10/20 04:16:31;;;;;;;0.77;0.63;;;;;;;7.26;92.01;95709.84;5039152;28;20282;-73
2021/10/20 04:19:00;;;;;;;0.90;0.77;;;;;;;7.15;91.94;95715.41;5037520;28;20220;-72
2021/10/20 04:21:28;;;;;;;1.90;0.70;;;;;;;7.04;92.47;95709.50;5037302;28;20215;-72
2021/10/20 04:23:56;;;;;;;1.43;1.23;;;;;;;7.01;92.49;95708.97;5041145;28;20223;-72
2021/10/20 04:26:24;;;;;;;0.80;0.80;;;;;;;6.90;93.35;95709.28;5041574;28;20687;-72
2021/10/20 04:28:51;;;;;;;1.57;1.07;;;;;;;6.89;94.20;95705.00;5039588;28;20576;-72
2021/10/20 04:31:19;;;;;;;1.47;1.37;;;;;;;6.90;94.20;95704.03;5041070;28;20325;-72
2021/10/20 04:33:48;;;;;;;1.93;0.43;;;;;;;6.90;94.71;95696.97;5042233;28;20223;-72
2021/10/20 04:36:16;;;;;;;0.63;0.60;;;;;;;6.97;94.60;95702.41;5039501;28;20298;-72
2021/10/20 04:38:44;;;;;;;2.13;2.03;;;;;;;6.98;94.65;95704.88;5036971;28;20672;-73
2021/10/20 04:41:13;;;;;;;0.97;0.43;;;;;;;6.90;93.60;95696.97;5036721;28;20261;-72
2021/10/20 04:43:41;;;;;;;0.70;0.70;;;;;;;6.77;94.29;95694.00;5040177;28;20227;-72
2021/10/20 04:46:09;;;;;;;1.70;1.60;;;;;;;6.69;93.79;95697.41;5035657;28;20785;-73
2021/10/20 04:48:37;;;;;;;0.47;0.47;;;;;;;6.63;94.01;95699.84;5041697;28;20250;-72
2021/10/20 04:51:07;;;;;;;1.30;0.53;;;;;;;6.59;94.29;95693.28;5040772;28;20268;-72
2021/10/20 04:53:35;;;;;;;0.40;0.40;;;;;;;6.55;93.80;95690.97;5041152;28;20218;-73
2021/10/20 04:56:03;;;;;;;1.47;1.33;;;;;;;6.58;93.65;95687.19;5037517;28;20406;-72
2021/10/20 04:58:32;;;;;;;1.07;0.77;;;;;;;6.54;93.65;95681.47;5034402;28;20584;-72
2021/10/20 05:00:59;;;;;;;0.93;0.80;;;;;;;6.54;93.88;95681.47;5039451;28;20301;-72
2021/10/20 05:03:28;;;;;;;3.23;1.00;;;;;;;6.57;93.69;95691.63;5038029;28;20414;-72
2021/10/20 05:05:56;;;;;;;3.03;0.70;;;;;;;6.64;93.84;95681.31;5037788;28;20266;-72
2021/10/20 05:08:25;;;;;;;1.40;0.87;;;;;;;6.74;94.30;95686.44;5034256;28;20450;-72
2021/10/20 05:10:56;;;;;;;0.60;0.60;;;;;;;6.72;94.25;95683.97;5044820;28;20273;-72
2021/10/20 05:13:24;;;;;;;1.23;0.50;;;;;;;6.77;94.43;95680.91;5045278;28;20234;-72
2021/10/20 05:15:53;;;;;;;0.90;0.73;;;;;;;6.81;94.72;95676.97;5046851;28;20708;-71
2021/10/20 05:18:21;;;;;;;2.10;1.07;;;;;;;6.87;94.98;95678.13;5047894;28;20668;-72
2021/10/20 05:20:48;;;;;;;0.83;0.57;;;;;;;6.92;94.79;95679.28;5042629;28;20234;-73
2021/10/20 05:23:16;;;;;;;0.63;0.63;;;;;;;6.95;94.64;95678.97;5045428;28;20302;-73
2021/10/20 05:25:46;;;;;;;1.47;1.37;;;;;;;6.95;94.80;95672.88;5046648;28;20671;-70
2021/10/20 05:28:15;;;;;;;0.50;0.50;;;;;;;6.94;94.51;95664.19;5044123;28;20231;-69
2021/10/20 05:30:43;;;;;;;0.60;0.40;;;;;;;6.92;94.43;95658.28;5037904;28;20625;-69
2021/10/20 05:33:11;;;;;;;1.07;0.80;;;;;;;6.91;94.66;95654.03;5043637;28;20251;-69
2021/10/20 05:35:39;;;;;;;2.87;1.00;;;;;;;6.88;94.46;95651.75;5042956;28;20724;-69
2021/10/20 05:38:07;;;;;;;1.87;1.77;;;;;;;6.88;94.60;95651.75;5044176;28;20420;-70
2021/10/20 05:40:35;;;;;;;1.40;1.30;;;;;;;6.90;94.70;95655.00;5046255;28;20326;-69
2021/10/20 05:43:04;;;;;;;1.90;1.30;;;;;;;6.98;94.45;95652.41;5043954;28;20229;-69
2021/10/20 05:45:33;;;;;;;1.00;0.90;;;;;;;6.98;94.30;95655.03;5043364;28;20223;-70
2021/10/20 05:48:01;;;;;;;3.17;1.03;;;;;;;7.15;94.19;95644.56;5037199;28;20247;-70
2021/10/20 05:50:29;;;;;;;0.50;0.30;;;;;;;7.17;92.26;95639.97;5045187;28;20223;-69
2021/10/20 05:52:57;;;;;;;1.03;0.97;;;;;;;7.06;91.84;95641.09;5045558;28;20219;-69
2021/10/20 05:55:25;;;;;;;0.80;0.63;;;;;;;6.98;91.42;95644.53;5045953;28;20233;-69
2021/10/20 05:57:53;;;;;;;0.50;0.33;;;;;;;6.87;90.69;95639.59;5041646;28;20280;-69
2021/10/20 06:00:22;;;;;;;0.50;0.40;;;;;;;6.78;90.52;95637.94;5045947;28;20502;-69
2021/10/20 06:02:50;;;;;;;0.53;0.53;;;;;;;6.69;90.23;95641.53;5045797;28;20242;-69
2021/10/20 06:05:18;;;;;;;2.50;0.77;;;;;;;6.46;90.63;95634.25;5041877;28;20273;-69
2021/10/20 06:07:46;;;;;;;0.60;0.57;;;;;;;6.44;90.68;95644.06;5040633;28;20317;-69
2021/10/20 06:10:16;;;;;;;0.83;0.83;;;;;;;6.34;90.90;95635.53;5037377;28;20457;-69
2021/10/20 06:12:45;;;;;;;0.90;0.60;;;;;;;6.31;90.95;95642.84;5041975;28;20309;-69
2021/10/20 06:15:15;;;;;;;0.87;0.87;;;;;;;6.29;91.49;95637.78;5045056;28;20223;-69
2021/10/20 06:18:05;;;;;;;1.37;1.27;;;;;;;6.30;91.50;95636.81;5044365;28;20226;-69
2021/10/20 06:20:33;;;;;;;0.70;0.70;;;;;;;6.40;91.78;95627.03;5046396;28;20785;-69
2021/10/20 06:23:02;;;;;;;2.80;0.80;;;;;;;6.59;92.23;95625.13;5045423;28;20780;-69
2021/10/20 06:25:30;;;;;;;1.97;1.00;;;;;;;6.81;93.10;95619.25;5044489;28;20230;-69
2021/10/20 06:27:58;;;;;;;1.53;1.43;;;;;;;7.17;93.55;95617.16;5038313;28;20251;-69
2021/10/20 06:30:26;;;;;;;4.67;1.73;;;;;;;7.57;93.03;95618.94;5036876;28;20219;-69
2021/10/20 06:32:54;;;;;;;2.03;1.90;;;;;;;7.94;92.20;95617.53;5033916;28;20224;-69
2021/10/20 06:35:23;;;;;;;5.47;2.80;;;;;;;8.34;91.29;95621.03;5037884;28;20315;-69
2021/10/20 06:37:54;;;;;;;2.83;1.33;;;;;;;8.60;90.33;95618.97;5041689;28;20223;-69
2021/10/20 06:40:22;;;;;;;1.20;1.10;;;;;;;8.71;89.34;95626.47;5057439;28;20457;-69
2021/10/20 06:42:51;;;;;;;1.47;1.23;;;;;;;8.83;89.14;95630.34;5044807;28;20306;-69
2021/10/20 06:45:19;;;;;;;1.03;1.00;;;;;;;8.95;89.18;95635.22;5044649;28;20272;-69
2021/10/20 06:47:47;;;;;;;2.87;1.47;;;;;;;9.02;89.03;95623.00;5040528;28;20253;-69
2021/10/20 06:50:16;;;;;;;1.07;0.43;;;;;;;9.10;88.69;95630.84;5039906;28;20252;-69
2021/10/20 06:52:45;;;;;;;3.63;1.50;;;;;;;9.20;88.89;95623.53;5039548;28;20306;-69
2021/10/20 06:55:14;;;;;;;1.60;1.50;;;;;;;9.38;88.32;95624.03;5043835;28;20242;-70
2021/10/20 06:57:42;;;;;;;1.37;1.27;;;;;;;9.71;86.07;95621.13;5043412;28;20234;-70
2021/10/20 07:00:12;;;;;;;1.33;1.30;;;;;;;10.09;84.69;95621.06;5043211;28;20265;-70
2021/10/20 07:02:40;;;;;;;1.63;1.53;;;;;;;10.44;83.49;95614.28;5041565;28;20707;-69
2021/10/20 07:05:09;;;;;;;1.63;1.53;;;;;;;10.66;83.00;95618.59;5043510;28;20616;-69
2021/10/20 07:07:38;;;;;;;2.30;1.30;;;;;;;10.82;82.29;95623.66;5041566;28;20797;-70
2021/10/20 07:10:09;;;;;;;2.00;1.50;;;;;;;11.07;81.75;95621.50;5046121;28;20300;-69
2021/10/20 07:12:37;;;;;;;1.67;1.37;;;;;;;11.23;81.67;95620.41;5044771;28;20314;-70
2021/10/20 07:15:06;;;;;;;3.77;1.63;;;;;;;11.39;80.68;95632.56;5044516;28;20229;-69
2021/10/20 07:17:34;;;;;;;2.63;1.33;;;;;;;11.62;80.37;95632.38;5043085;28;20280;-69
2021/10/20 07:20:03;;;;;;;2.13;1.57;;;;;;;11.78;79.88;95634.72;5046110;28;20284;-70
2021/10/20 07:22:34;;;;;;;1.67;1.57;;;;;;;11.92;78.59;95635.66;5044487;28;20696;-70
2021/10/20 07:25:03;;;;;;;5.10;1.33;;;;;;;12.06;78.75;95629.44;5045298;28;20245;-69
2021/10/20 07:27:34;;;;;;;3.17;1.17;;;;;;;12.36;77.45;95634.53;5041503;28;20311;-70
2021/10/20 07:30:02;;;;;;;1.53;1.43;;;;;;;12.61;76.42;95622.41;5040443;28;20225;-69
2021/10/20 07:32:31;;;;;;;2.07;1.80;;;;;;;12.87;75.31;95623.53;5044180;28;20250;-70
2021/10/20 07:34:59;;;;;;;1.83;1.73;;;;;;;13.15;75.14;95637.47;5041462;28;20285;-70
2021/10/20 07:37:27;;;;;;;2.10;2.00;;;;;;;13.25;74.63;95627.34;5043306;28;20233;-70
2021/10/20 07:39:55;;;;;;;1.90;1.80;;;;;;;13.48;73.35;95636.75;5037046;28;20221;-69
2021/10/20 07:42:23;;;;;;;4.40;1.97;;;;;;;13.62;72.76;95633.94;5045496;28;20264;-69
2021/10/20 07:44:53;;;;;;;1.53;1.43;;;;;;;13.86;72.41;95640.44;5044534;28;20250;-69
2021/10/20 07:47:24;;;;;;;8.97;3.03;;;;;;;14.09;72.86;95633.91;5035914;28;20306;-70
2021/10/20 07:49:52;;;;;;;1.87;1.57;;;;;;;14.21;72.37;95643.69;5032683;28;20215;-70
2021/10/20 07:52:24;;;;;;;1.77;1.50;;;;;;;14.27;72.88;95641.25;5045565;28;20254;-70
2021/10/20 07:54:52;;;;;;;2.07;1.97;;;;;;;14.34;72.88;95634.06;5043411;28;20246;-69
2021/10/20 07:57:21;;;;;;;1.93;1.57;;;;;;;14.44;73.37;95631.78;5043380;28;20792;-70
2021/10/20 07:59:49;;;;;;;1.53;1.43;;;;;;;14.57;74.17;95626.47;5041904;28;20237;-70
2021/10/20 08:02:20;;;;;;;2.80;1.90;;;;;;;14.76;74.04;95614.97;5037281;28;20684;-70
2021/10/20 08:04:49;;;;;;;1.73;1.20;;;;;;;14.91;73.97;95606.72;5043542;28;20569;-70
2021/10/20 08:07:17;;;;;;;3.17;1.43;;;;;;;14.74;74.21;95606.41;5044935;28;20230;-70
2021/10/20 08:09:46;;;;;;;2.10;1.30;;;;;;;15.01;73.28;95607.09;5041887;28;20250;-70
2021/10/20 08:12:16;;;;;;;2.97;1.53;;;;;;;15.31;73.81;95606.50;5044556;28;20560;-70
2021/10/20 08:14:44;;;;;;;1.80;1.37;;;;;;;15.61;72.69;95602.22;5056497;28;20319;-70
2021/10/20 08:17:13;;;;;;;6.83;2.67;;;;;;;15.93;71.65;95599.53;5042424;28;20223;-70
2021/10/20 08:19:42;;;;;;;1.53;1.43;;;;;;;16.34;70.78;95606.06;5037125;28;20315;-70
2021/10/20 08:22:10;;;;;;;2.23;2.13;;;;;;;16.64;68.82;95599.00;5039898;28;20231;-70
2021/10/20 08:24:38;;;;;;;1.77;1.63;;;;;;;17.00;68.92;95600.00;5043200;28;20211;-70
2021/10/20 08:27:07;;;;;;;1.20;1.07;;;;;;;17.19;67.54;95604.28;5034116;28;20703;-70
2021/10/20 08:29:37;;;;;;;2.50;2.30;;;;;;;17.19;67.64;95598.09;5038221;28;20760;-70
2021/10/20 08:32:07;;;;;;;5.57;2.00;;;;;;;17.59;66.44;95598.34;5043154;28;20742;-70
2021/10/20 08:34:36;;;;;;;1.67;1.57;;;;;;;17.93;65.45;95601.34;5035687;28;20214;-70
2021/10/20 08:37:06;;;;;;;1.97;1.27;;;;;;;18.10;65.09;95599.56;5038189;28;20243;-70
2021/10/20 08:39:34;;;;;;;1.63;1.53;;;;;;;18.11;63.96;95595.88;5039976;28;20254;-70
2021/10/20 08:42:02;;;;;;;2.93;2.73;;;;;;;18.45;64.18;95594.22;5045085;28;20670;-70
2021/10/20 08:44:32;;;;;;;2.70;1.57;;;;;;;18.58;63.47;95590.50;5041717;28;20242;-70
2021/10/20 08:47:01;;;;;;;1.37;1.27;;;;;;;18.72;61.28;95586.53;5042820;28;20309;-70
2021/10/20 08:49:30;;;;;;;1.87;1.77;;;;;;;18.93;62.66;95585.91;5044981;28;20288;-70
2021/10/20 08:51:58;;;;;;;2.03;1.47;;;;;;;19.13;62.41;95592.69;5045922;28;20667;-70
2021/10/20 08:54:29;;;;;;;2.50;1.53;;;;;;;19.25;61.30;95585.41;5045083;28;20242;-70
2021/10/20 08:56:57;;;;;;;1.93;1.63;;;;;;;18.95;62.18;95581.13;5047538;28;20226;-70
2021/10/20 08:59:25;;;;;;;2.37;2.27;;;;;;;18.95;60.60;95574.97;5046732;28;20309;-70
2021/10/20 09:01:53;;;;;;;1.80;1.70;;;;;;;19.10;59.62;95575.25;5045746;28;20699;-70
2021/10/20 09:04:22;;;;;;;1.83;1.73;;;;;;;19.69;59.84;95569.63;5044137;28;20224;-70
2021/10/20 09:06:51;;;;;;;2.17;1.83;;;;;;;19.53;59.21;95566.66;5035069;28;20516;-70
2021/10/20 09:09:19;;;;;;;7.20;2.00;;;;;;;19.40;59.80;95561.63;5044783;28;20718;-70
2021/10/20 09:11:49;;;;;;;2.80;2.33;;;;;;;19.69;59.20;95562.41;5034760;28;20328;-70
2021/10/20 09:14:19;;;;;;;19.13;4.40;;;;;;;19.87;59.23;95550.63;5047797;28;20300;-70
2021/10/20 09:16:47;;;;;;;4.90;2.20;;;;;;;20.24;58.41;95545.53;5061101;28;20227;-70
2021/10/20 09:19:28;;;;;;;2.67;2.27;;;;;;;20.44;57.84;95545.03;5048538;28;20565;-70
2021/10/20 09:21:58;;;;;;;1.40;1.30;;;;;;;21.07;56.36;95538.28;5040844;28;20226;-70
2021/10/20 09:24:29;;;;;;;2.03;1.90;;;;;;;21.48;54.71;95533.31;5045641;28;20513;-70
2021/10/20 09:26:59;;;;;;;2.40;1.57;;;;;;;21.70;54.42;95520.63;5036646;28;20258;-70
2021/10/20 09:29:28;;;;;;;1.67;1.53;;;;;;;21.45;53.19;95517.72;5045182;28;20213;-70
2021/10/20 09:31:58;;;;;;;3.30;1.63;;;;;;;21.83;53.32;95504.06;5042733;28;20217;-70
2021/10/20 09:34:34;;;;;;;1.57;1.47;;;;;;;22.36;52.99;95502.25;5044031;28;20237;-70
2021/10/20 09:37:03;;;;;;;2.10;1.90;;;;;;;22.49;52.45;95489.38;5046219;28;20234;-70
2021/10/20 09:39:32;;;;;;;1.60;1.50;;;;;;;22.50;52.17;95485.66;5045025;28;20219;-70
2021/10/20 09:42:09;;;;;;;3.20;2.97;;;;;;;22.55;51.12;95488.34;5045972;28;20398;-70
2021/10/20 09:44:48;;;;;;;1.33;1.23;;;;;;;22.72;50.63;95488.94;5044531;28;20254;-70
2021/10/20 09:47:16;;;;;;;1.43;1.33;;;;;;;23.24;50.59;95485.34;5043687;28;20218;-71
2021/10/20 09:49:50;;;;;;;2.13;1.80;;;;;;;23.91;49.41;95483.47;5047344;28;20223;-70
2021/10/20 09:52:22;;;;;;;1.30;1.30;;;;;;;24.38;48.90;95480.41;5045857;28;20584;-70
2021/10/20 09:54:50;;;;;;;2.03;1.93;;;;;;;24.75;47.07;95477.28;5047298;28;20273;-70
2021/10/20 09:57:30;;;;;;;2.10;1.90;;;;;;;24.62;47.06;95478.69;5045113;28;20223;-70
2021/10/20 09:59:58;;;;;;;1.40;1.37;;;;;;;24.67;47.57;95469.75;5045702;28;20222;-70
2021/10/20 10:02:28;;;;;;;0.80;0.80;;;;;;;24.30;47.83;95476.34;5042775;28;20665;-70
2021/10/20 10:04:57;;;;;;;2.03;1.93;;;;;;;24.61;48.56;95474.38;5030685;28;20223;-70
2021/10/20 10:07:26;;;;;;;3.80;1.10;;;;;;;24.91;47.42;95476.13;5045167;28;20249;-70
2021/10/20 10:09:55;;;;;;;1.37;1.23;;;;;;;23.59;49.35;95475.63;5044784;28;20798;-70
2021/10/20 10:12:27;;;;;;;1.27;1.17;;;;;;;23.61;50.18;95474.34;5041416;28;20306;-70
2021/10/20 10:15:02;;;;;;;1.67;1.57;;;;;;;24.25;49.21;95467.47;5039920;28;20250;-70
2021/10/20 10:17:55;;;;;;;1.87;1.77;;;;;;;24.06;49.52;95462.69;5046903;28;20227;-70
2021/10/20 10:20:28;;;;;;;2.50;1.73;;;;;;;23.07;48.96;95457.84;5045700;28;20215;-70
2021/10/20 10:22:59;;;;;;;1.83;1.73;;;;;;;22.64;49.93;95462.56;5040202;28;20222;-70
2021/10/20 10:25:34;;;;;;;2.00;1.90;;;;;;;23.16;50.97;95467.81;5046878;28;20474;-70
2021/10/20 10:28:08;;;;;;;2.00;1.90;;;;;;;23.15;49.97;95460.81;5046164;28;20227;-70
2021/10/20 10:30:50;;;;;;;4.10;2.83;;;;;;;23.12;50.01;95449.78;5046701;28;20226;-70
2021/10/20 10:33:20;;;;;;;2.33;2.13;;;;;;;23.48;50.14;95451.41;5043882;28;20226;-70
2021/10/20 10:36:15;;;;;;;1.33;1.23;;;;;;;23.64;50.75;95456.81;5044013;28;20215;-70
2021/10/20 10:38:46;;;;;;;2.17;2.07;;;;;;;24.09;48.73;95448.66;5041132;28;20227;-70
2021/10/20 10:41:27;;;;;;;5.07;1.57;;;;;;;24.18;49.34;95427.31;5046480;28;20522;-71
2021/10/20 10:44:17;;;;;;;1.37;1.27;;;;;;;24.07;48.35;95434.63;5045873;28;20250;-70
2021/10/20 10:47:04;;;;;;;10.87;2.40;;;;;;;24.12;49.16;95431.91;5045507;28;20231;-70
2021/10/20 10:49:35;;;;;;;1.50;1.40;;;;;;;24.02;48.46;95426.56;5044580;28;20429;-70
2021/10/20 10:52:16;;;;;;;1.67;1.57;;;;;;;23.81;50.25;95411.53;5045014;28;20296;-70
2021/10/20 10:54:57;;;;;;;1.50;1.43;;;;;;;23.24;51.34;95412.66;5043448;28;20226;-70
2021/10/20 10:57:38;;;;;;;1.60;1.50;;;;;;;22.86;51.95;95409.38;5045844;28;20711;-70
2021/10/20 11:00:10;;;;;;;2.97;1.20;;;;;;;22.76;53.01;95414.69;5045263;28;20257;-70
2021/10/20 11:02:41;;;;;;;1.97;1.57;;;;;;;22.74;53.31;95400.72;5044279;28;20732;-70
2021/10/20 11:05:09;;;;;;;1.50;1.43;;;;;;;22.80;52.63;95396.97;5044699;28;20230;-70
2021/10/20 11:07:38;;;;;;;1.50;1.43;;;;;;;21.96;54.31;95403.41;5044070;28;20530;-70
2021/10/20 11:10:07;;;;;;;3.90;1.33;;;;;;;21.07;56.15;95404.13;5042508;28;20215;-70
2021/10/20 11:12:35;;;;;;;2.53;1.37;;;;;;;21.12;56.18;95396.13;5043940;28;20748;-70
2021/10/20 11:15:03;;;;;;;3.10;1.73;;;;;;;20.91;56.09;95394.31;5043551;28;20218;-70
2021/10/20 11:17:33;;;;;;;1.77;1.13;;;;;;;20.59;57.92;95396.97;5043191;28;20763;-70
2021/10/20 11:20:06;;;;;;;1.20;1.10;;;;;;;20.76;57.37;95386.13;5046262;28;20239;-70
2021/10/20 11:22:35;;;;;;;1.40;1.07;;;;;;;20.46;56.78;95382.06;5041708;28;20258;-70
2021/10/20 11:25:06;;;;;;;2.83;1.30;;;;;;;20.22;58.05;95375.38;5043186;28;20452;-69
2021/10/20 11:27:37;;;;;;;1.63;1.53;;;;;;;20.07;58.09;95376.81;5040821;28;20255;-70
2021/10/20 11:30:06;;;;;;;2.30;1.93;;;;;;;20.42;58.06;95380.94;5038480;28;20254;-70
2021/10/20 11:32:36;;;;;;;1.20;1.10;;;;;;;20.83;59.94;95371.44;5040257;28;20801;-69
2021/10/20 11:35:05;;;;;;;1.17;1.17;;;;;;;21.09;57.94;95369.78;5043381;28;20998;-70
2021/10/20 11:37:35;;;;;;;1.83;1.67;;;;;;;20.35;57.58;95369.59;5043538;28;20238;-69
2021/10/20 11:40:04;;;;;;;2.80;1.10;;;;;;;19.65;57.04;95340.91;5044690;28;20246;-69
2021/10/20 11:42:33;;;;;;;1.23;1.13;;;;;;;19.66;58.84;95345.22;5036330;28;20236;-70
2021/10/20 11:45:04;;;;;;;0.87;0.80;;;;;;;19.48;59.65;95346.31;5038605;28;20305;-70
2021/10/20 11:47:33;;;;;;;1.63;1.47;;;;;;;19.58;59.65;95349.97;5041562;28;20591;-70
2021/10/20 11:50:03;;;;;;;1.40;0.83;;;;;;;19.71;60.08;95358.69;5042932;28;20306;-70